createdAt,value
2022-08-07T00:01:44.272Z,17.50
2022-08-07T00:04:06.014Z,17.40
2022-08-07T00:06:33.784Z,17.40
2022-08-07T00:09:16.291Z,17.50
2022-08-07T00:11:48.044Z,17.60
2022-08-07T00:14:25.474Z,17.50
2022-08-07T00:16:57.471Z,17.40
2022-08-07T00:19:26.060Z,17.30
2022-08-07T00:22:01.921Z,17.40
2022-08-07T00:24:31.563Z,17.30
2022-08-07T00:27:07.282Z,17.20
2022-08-07T00:29:37.024Z,17.30
2022-08-07T00:32:05.970Z,17.20
2022-08-07T00:34:35.566Z,17.10
2022-08-07T00:37:05.063Z,17.20
2022-08-07T00:39:32.314Z,17.20
2022-08-07T00:42:05.026Z,17.00
2022-08-07T00:44:33.627Z,16.90
2022-08-07T00:47:01.769Z,16.90
2022-08-07T00:50:19.611Z,16.80
2022-08-07T00:52:17.660Z,16.90
2022-08-07T00:54:47.118Z,16.90
2022-08-07T00:57:25.842Z,16.80
2022-08-07T00:59:53.795Z,16.80
2022-08-07T01:02:28.452Z,16.80
2022-08-07T01:04:58.234Z,16.90
2022-08-07T01:07:27.551Z,16.90
2022-08-07T01:10:06.764Z,16.80
2022-08-07T01:12:53.337Z,16.60
2022-08-07T01:15:20.821Z,16.60
2022-08-07T01:17:47.450Z,16.70
2022-08-07T01:20:16.585Z,16.60
2022-08-07T01:22:58.435Z,16.60
2022-08-07T01:25:54.131Z,16.50
2022-08-07T01:28:18.698Z,16.50
2022-08-07T01:30:46.359Z,16.40
2022-08-07T01:33:13.904Z,16.40
2022-08-07T01:35:54.326Z,16.30
2022-08-07T01:38:29.390Z,16.30
2022-08-07T01:41:01.032Z,16.40
2022-08-07T01:43:34.751Z,16.40
2022-08-07T01:46:05.566Z,16.30
2022-08-07T01:48:35.214Z,16.30
2022-08-07T01:51:58.723Z,16.30
2022-08-07T01:54:09.571Z,16.20
2022-08-07T01:57:00.190Z,16.10
2022-08-07T01:59:44.124Z,16.10
2022-08-07T02:03:11.466Z,16.10
2022-08-07T02:05:15.878Z,16.10
2022-08-07T02:07:58.455Z,16.20
2022-08-07T02:10:27.729Z,16.30
2022-08-07T02:12:59.746Z,16.10
2022-08-07T02:15:29.742Z,16.20
2022-08-07T02:17:59.900Z,16.20
2022-08-07T02:20:28.097Z,16.00
2022-08-07T02:23:01.719Z,15.90
2022-08-07T02:26:10.532Z,16.10
2022-08-07T02:28:24.606Z,16.00
2022-08-07T02:30:53.605Z,16.00
2022-08-07T02:33:21.378Z,15.90
2022-08-07T02:36:28.520Z,15.70
2022-08-07T02:38:38.858Z,15.70
2022-08-07T02:41:06.276Z,15.80
2022-08-07T02:43:38.955Z,15.80
2022-08-07T02:46:07.246Z,15.90
2022-08-07T02:48:34.447Z,15.90
2022-08-07T02:51:28.950Z,15.90
2022-08-07T02:54:01.456Z,16.00
2022-08-07T02:56:31.355Z,15.90
2022-08-07T02:59:02.036Z,15.90
2022-08-07T03:01:36.540Z,15.90
2022-08-07T03:04:07.702Z,15.90
2022-08-07T03:06:42.009Z,15.70
2022-08-07T03:09:11.699Z,15.70
2022-08-07T03:11:51.596Z,15.60
2022-08-07T03:14:20.401Z,15.70
2022-08-07T03:16:49.556Z,15.60
2022-08-07T03:19:16.519Z,15.70
2022-08-07T03:21:50.554Z,15.80
2022-08-07T03:24:26.951Z,15.60
2022-08-07T03:27:00.006Z,15.40
2022-08-07T03:29:37.822Z,15.60
2022-08-07T03:32:12.864Z,15.60
2022-08-07T03:34:47.163Z,15.50
2022-08-07T03:37:32.803Z,15.50
2022-08-07T03:40:15.435Z,15.50
2022-08-07T03:42:43.903Z,15.50
2022-08-07T03:45:11.565Z,15.30
2022-08-07T03:47:48.150Z,15.30
2022-08-07T03:50:23.105Z,15.20
2022-08-07T03:52:52.468Z,15.20
2022-08-07T03:55:19.206Z,15.20
2022-08-07T03:58:34.531Z,15.20
2022-08-07T04:00:36.760Z,15.10
2022-08-07T04:03:05.286Z,15.10
2022-08-07T04:05:40.412Z,15.20
2022-08-07T04:08:16.278Z,15.10
2022-08-07T04:10:54.514Z,15.00
2022-08-07T04:14:10.377Z,15.00
2022-08-07T04:16:31.435Z,15.00
2022-08-07T04:19:04.040Z,15.00
2022-08-07T04:21:39.038Z,15.10
2022-08-07T04:24:30.677Z,15.00
2022-08-07T04:27:02.844Z,15.10
2022-08-07T04:29:48.635Z,15.00
2022-08-07T04:32:18.255Z,14.90
2022-08-07T04:35:03.965Z,15.00
2022-08-07T04:37:52.807Z,15.10
2022-08-07T04:40:20.114Z,15.10
2022-08-07T04:42:51.779Z,15.10
2022-08-07T04:45:44.544Z,15.10
2022-08-07T04:48:12.755Z,15.00
2022-08-07T04:50:54.067Z,15.10
2022-08-07T04:54:01.638Z,15.20
2022-08-07T04:58:23.764Z,15.20
2022-08-07T05:00:10.945Z,15.30
2022-08-07T05:02:28.139Z,15.40
2022-08-07T05:05:54.037Z,15.30
2022-08-07T05:08:20.343Z,15.40
2022-08-07T05:11:19.027Z,15.50
2022-08-07T05:14:52.713Z,15.50
2022-08-07T05:16:52.726Z,15.50
2022-08-07T05:19:32.646Z,15.50
2022-08-07T05:22:10.018Z,15.60
2022-08-07T05:24:39.441Z,15.60
2022-08-07T05:28:02.143Z,15.60
2022-08-07T05:30:00.726Z,15.70
2022-08-07T05:32:28.298Z,15.70
2022-08-07T05:34:56.585Z,15.90
2022-08-07T05:37:25.118Z,16.00
2022-08-07T05:40:06.303Z,16.00
2022-08-07T05:42:39.885Z,16.00
2022-08-07T05:45:26.275Z,16.10
2022-08-07T05:48:01.421Z,16.10
2022-08-07T05:50:33.762Z,16.20
2022-08-07T05:53:01.902Z,16.30
2022-08-07T05:56:03.649Z,16.40
2022-08-07T05:58:35.976Z,16.40
2022-08-07T06:01:05.870Z,16.50
2022-08-07T06:03:53.686Z,16.60
2022-08-07T06:06:23.055Z,16.50
2022-08-07T06:08:57.053Z,16.60
2022-08-07T06:11:25.490Z,16.70
2022-08-07T06:14:13.174Z,16.80
2022-08-07T06:16:40.512Z,16.90
2022-08-07T06:19:07.950Z,17.00
2022-08-07T06:22:14.888Z,17.10
2022-08-07T06:24:46.309Z,17.20
2022-08-07T06:27:22.941Z,17.40
2022-08-07T06:30:32.161Z,17.40
2022-08-07T06:32:55.664Z,17.50
2022-08-07T06:35:22.225Z,17.60
2022-08-07T06:37:49.272Z,17.70
2022-08-07T06:40:21.310Z,17.60
2022-08-07T06:42:49.451Z,17.70
2022-08-07T06:45:21.083Z,17.80
2022-08-07T06:47:58.847Z,18.00
2022-08-07T06:50:27.222Z,18.20
2022-08-07T06:52:58.446Z,18.40
2022-08-07T06:55:59.860Z,18.50
2022-08-07T06:58:21.503Z,18.60
2022-08-07T07:00:53.053Z,18.60
2022-08-07T07:03:39.923Z,18.90
2022-08-07T07:06:11.406Z,18.80
2022-08-07T07:08:39.971Z,18.90
2022-08-07T07:12:08.309Z,19.10
2022-08-07T07:14:02.366Z,19.30
2022-08-07T07:16:45.164Z,19.40
2022-08-07T07:19:57.858Z,19.30
2022-08-07T07:22:34.207Z,19.40
2022-08-07T07:25:02.893Z,19.40
2022-08-07T07:27:58.516Z,19.50
2022-08-07T07:30:40.028Z,19.60
2022-08-07T07:33:11.846Z,19.60
2022-08-07T07:35:54.770Z,19.90
2022-08-07T07:38:29.373Z,20.00
2022-08-07T07:41:02.558Z,20.20
2022-08-07T07:43:48.189Z,20.20
2022-08-07T07:46:38.265Z,20.40
2022-08-07T07:50:29.589Z,20.60
2022-08-07T07:51:59.919Z,20.80
2022-08-07T07:54:29.341Z,20.80
2022-08-07T07:56:58.545Z,20.90
2022-08-07T07:59:52.911Z,21.00
2022-08-07T08:02:34.162Z,20.90
2022-08-07T08:05:05.081Z,21.00
2022-08-07T08:07:36.008Z,21.20
2022-08-07T08:10:14.857Z,21.40
2022-08-07T08:12:59.953Z,21.40
2022-08-07T08:15:57.672Z,21.50
2022-08-07T08:18:24.223Z,21.60
2022-08-07T08:20:52.476Z,21.70
2022-08-07T08:23:40.193Z,22.00
2022-08-07T08:26:26.459Z,22.00
2022-08-07T08:28:55.648Z,22.10
2022-08-07T08:31:58.718Z,22.50
2022-08-07T08:34:27.126Z,22.40
2022-08-07T08:36:59.321Z,22.30
2022-08-07T08:39:39.728Z,22.30
2022-08-07T08:42:27.518Z,22.20
2022-08-07T08:45:00.285Z,22.40
2022-08-07T08:47:54.641Z,22.70
2022-08-07T08:50:34.750Z,23.00
2022-08-07T08:53:30.059Z,22.90
2022-08-07T08:56:01.947Z,23.10
2022-08-07T08:58:50.554Z,23.00
2022-08-07T09:01:29.872Z,23.40
2022-08-07T09:04:28.788Z,23.30
2022-08-07T09:07:11.106Z,23.60
2022-08-07T09:09:48.993Z,23.70
2022-08-07T09:12:30.925Z,23.50
2022-08-07T09:16:22.654Z,23.50
2022-08-07T09:18:35.000Z,23.50
2022-08-07T09:21:34.107Z,23.70
2022-08-07T09:24:56.089Z,23.90
2022-08-07T09:28:00.375Z,24.10
2022-08-07T09:30:46.271Z,23.80
2022-08-07T09:33:52.499Z,23.80
2022-08-07T09:36:35.358Z,23.70
2022-08-07T09:39:53.988Z,23.90
2022-08-07T09:42:42.761Z,24.30
2022-08-07T09:47:27.830Z,24.40
2022-08-07T09:50:02.859Z,24.50
2022-08-07T09:52:15.231Z,24.40
2022-08-07T09:55:29.038Z,24.30
2022-08-07T09:58:32.203Z,24.50
2022-08-07T10:01:51.575Z,24.50
2022-08-07T10:04:47.548Z,24.20
2022-08-07T10:07:59.092Z,24.30
2022-08-07T10:10:53.835Z,24.50
2022-08-07T10:14:00.484Z,24.60
2022-08-07T10:16:47.173Z,24.50
2022-08-07T10:19:37.679Z,24.60
2022-08-07T10:22:46.793Z,25.00
2022-08-07T10:25:42.501Z,25.20
2022-08-07T10:28:30.124Z,25.20
2022-08-07T10:31:02.816Z,25.30
2022-08-07T10:34:06.569Z,25.30
2022-08-07T10:36:37.563Z,25.30
2022-08-07T10:40:03.363Z,25.80
2022-08-07T10:42:36.765Z,25.90
2022-08-07T10:45:11.524Z,25.90
2022-08-07T10:48:03.171Z,25.90
2022-08-07T10:50:50.322Z,26.00
2022-08-07T10:53:59.868Z,26.00
2022-08-07T10:56:54.785Z,25.90
2022-08-07T10:59:50.474Z,26.20
2022-08-07T11:02:34.107Z,26.60
2022-08-07T11:05:50.615Z,26.60
2022-08-07T11:08:39.251Z,26.70
2022-08-07T11:11:11.775Z,26.60
2022-08-07T11:14:45.146Z,26.60
2022-08-07T11:16:41.003Z,26.70
2022-08-07T11:19:27.200Z,26.90
2022-08-07T11:22:32.368Z,26.70
2022-08-07T11:25:20.690Z,27.00
2022-08-07T11:28:28.633Z,26.90
2022-08-07T11:31:08.673Z,27.00
2022-08-07T11:34:00.452Z,27.30
2022-08-07T11:36:52.362Z,27.20
2022-08-07T11:40:00.631Z,27.40
2022-08-07T11:42:49.718Z,27.20
2022-08-07T11:46:11.659Z,27.10
2022-08-07T11:49:51.022Z,27.10
2022-08-07T11:52:02.536Z,27.50
2022-08-07T11:55:13.219Z,27.40
2022-08-07T11:58:33.858Z,27.70
2022-08-07T12:01:25.863Z,27.70
2022-08-07T12:04:45.734Z,27.90
2022-08-07T12:07:38.677Z,27.40
2022-08-07T12:10:13.673Z,27.00
2022-08-07T12:12:43.818Z,27.20
2022-08-07T12:15:46.024Z,27.60
2022-08-07T12:18:22.072Z,27.70
2022-08-07T12:22:37.766Z,28.20
2022-08-07T12:24:40.262Z,28.10
2022-08-07T12:27:16.153Z,28.40
2022-08-07T12:29:51.849Z,28.80
2022-08-07T12:32:31.043Z,28.40
2022-08-07T12:34:59.557Z,28.30
2022-08-07T12:38:10.201Z,28.50
2022-08-07T12:40:46.918Z,28.70
2022-08-07T12:44:02.704Z,29.00
2022-08-07T12:46:31.953Z,28.80
2022-08-07T12:49:39.563Z,29.10
2022-08-07T12:52:19.334Z,29.50
2022-08-07T12:55:09.909Z,29.50
2022-08-07T12:58:01.291Z,29.10
2022-08-07T13:00:49.922Z,29.00
2022-08-07T13:04:00.649Z,29.50
2022-08-07T13:06:54.242Z,29.60
2022-08-07T13:10:19.705Z,29.60
2022-08-07T13:13:08.529Z,29.00
2022-08-07T13:16:23.510Z,29.50
2022-08-07T13:18:57.582Z,30.00
2022-08-07T13:21:50.451Z,30.00
2022-08-07T13:24:29.428Z,29.90
2022-08-07T13:27:20.528Z,29.90
2022-08-07T13:30:03.588Z,29.70
2022-08-07T13:32:44.612Z,29.70
2022-08-07T13:35:23.940Z,29.90
2022-08-07T13:38:19.765Z,30.00
2022-08-07T13:41:25.423Z,30.20
2022-08-07T13:43:57.058Z,30.70
2022-08-07T13:46:33.348Z,31.00
2022-08-07T13:49:03.998Z,30.90
2022-08-07T13:52:19.084Z,30.70
2022-08-07T13:54:30.837Z,30.90
2022-08-07T13:57:03.217Z,30.80
2022-08-07T13:59:33.937Z,30.60
2022-08-07T14:02:19.219Z,30.60
2022-08-07T14:05:04.672Z,30.90
2022-08-07T14:07:38.650Z,31.30
2022-08-07T14:10:28.299Z,31.40
2022-08-07T14:13:02.734Z,31.60
2022-08-07T14:15:41.838Z,31.40
2022-08-07T14:18:29.277Z,30.90
2022-08-07T14:21:20.926Z,31.00
2022-08-07T14:24:08.649Z,31.30
2022-08-07T14:26:54.406Z,31.30
2022-08-07T14:30:09.736Z,31.50
2022-08-07T14:32:15.067Z,31.40
2022-08-07T14:34:46.030Z,31.20
2022-08-07T14:37:16.538Z,31.10
2022-08-07T14:40:18.044Z,31.10
2022-08-07T14:42:35.443Z,31.60
2022-08-07T14:45:25.218Z,32.20
2022-08-07T14:51:07.225Z,32.30
2022-08-07T14:54:05.579Z,32.70
2022-08-07T14:56:33.373Z,32.20
2022-08-07T14:59:14.138Z,32.20
2022-08-07T15:01:58.420Z,32.40
2022-08-07T15:04:26.171Z,32.40
2022-08-07T15:06:56.913Z,32.50
2022-08-07T15:09:58.273Z,32.00
2022-08-07T15:12:25.874Z,32.30
2022-08-07T15:15:09.089Z,32.60
2022-08-07T15:17:59.537Z,32.20
2022-08-07T15:25:15.315Z,32.70
2022-08-07T15:26:21.038Z,32.70
2022-08-07T15:28:55.523Z,32.70
2022-08-07T15:34:17.169Z,33.00
2022-08-07T15:37:02.897Z,32.70
2022-08-07T15:39:57.274Z,32.60
2022-08-07T15:42:48.172Z,32.90
2022-08-07T15:48:25.641Z,32.70
2022-08-07T15:51:08.945Z,32.80
2022-08-07T15:53:56.522Z,33.10
2022-08-07T15:56:33.132Z,32.90
2022-08-07T15:59:05.772Z,33.00
2022-08-07T16:01:39.395Z,33.10
2022-08-07T16:04:15.107Z,32.80
2022-08-07T16:06:50.238Z,33.10
2022-08-07T16:09:22.515Z,33.20
2022-08-07T16:12:00.092Z,33.20
2022-08-07T16:14:53.224Z,32.70
2022-08-07T16:18:01.428Z,32.80
2022-08-07T16:20:55.185Z,32.60
2022-08-07T16:24:09.298Z,32.00
2022-08-07T16:27:40.697Z,31.70
2022-08-07T16:30:31.837Z,31.50
2022-08-07T16:34:03.054Z,31.40
2022-08-07T16:36:20.848Z,31.20
2022-08-07T16:39:02.922Z,30.90
2022-08-07T16:41:53.964Z,30.60
2022-08-07T16:45:13.996Z,30.40
2022-08-07T16:47:53.002Z,30.30
2022-08-07T16:51:21.706Z,30.30
2022-08-07T16:54:32.939Z,29.90
2022-08-07T16:58:01.700Z,29.70
2022-08-07T17:00:29.777Z,29.30
2022-08-07T17:03:17.305Z,28.90
2022-08-07T17:06:29.789Z,28.60
2022-08-07T17:10:06.098Z,28.40
2022-08-07T17:12:33.781Z,28.10
2022-08-07T17:15:17.885Z,27.90
2022-08-07T17:17:55.329Z,27.90
2022-08-07T17:20:54.673Z,27.90
2022-08-07T17:23:49.950Z,27.80
2022-08-07T17:26:49.619Z,27.60
2022-08-07T17:30:16.082Z,27.70
2022-08-07T17:34:08.715Z,27.60
2022-08-07T17:35:57.370Z,27.30
2022-08-07T17:38:35.173Z,27.20
2022-08-07T17:42:00.596Z,27.10
2022-08-07T17:44:08.356Z,27.10
2022-08-07T17:46:52.446Z,27.10
2022-08-07T17:49:45.465Z,26.90
2022-08-07T17:53:00.484Z,26.80
2022-08-07T17:56:00.203Z,26.70
2022-08-07T17:58:35.371Z,26.70
2022-08-07T18:01:21.469Z,26.60
2022-08-07T18:04:07.289Z,26.60
2022-08-07T18:07:20.439Z,26.40
2022-08-07T18:10:32.020Z,26.40
2022-08-07T18:13:40.795Z,26.30
2022-08-07T18:16:31.178Z,26.20
2022-08-07T18:21:08.887Z,26.20
2022-08-07T18:22:50.070Z,26.10
2022-08-07T18:25:40.663Z,26.00
2022-08-07T18:28:34.268Z,26.00
2022-08-07T18:31:12.232Z,25.90
2022-08-07T18:34:06.554Z,25.70
2022-08-07T18:37:10.402Z,25.60
2022-08-07T18:40:05.436Z,25.60
2022-08-07T18:43:18.182Z,25.50
2022-08-07T18:46:24.332Z,25.40
2022-08-07T18:50:30.759Z,25.30
2022-08-07T18:52:56.550Z,25.30
2022-08-07T18:55:57.188Z,25.20
2022-08-07T18:59:02.183Z,25.10
2022-08-07T19:02:32.502Z,25.00
2022-08-07T19:04:38.846Z,24.90
2022-08-07T19:07:34.240Z,24.80
2022-08-07T19:10:18.358Z,24.70
2022-08-07T19:13:11.806Z,24.70
2022-08-07T19:17:00.561Z,24.60
2022-08-07T19:19:31.596Z,24.60
2022-08-07T19:22:08.686Z,24.40
2022-08-07T19:24:46.106Z,24.40
2022-08-07T19:28:57.547Z,24.30
2022-08-07T19:31:02.069Z,24.30
2022-08-07T19:33:08.287Z,24.20
2022-08-07T19:35:42.047Z,24.10
2022-08-07T19:38:16.891Z,24.10
2022-08-07T19:40:50.065Z,24.10
2022-08-07T19:43:43.457Z,23.90
2022-08-07T19:46:10.931Z,23.90
2022-08-07T19:48:53.612Z,23.80
2022-08-07T19:51:50.794Z,23.80
2022-08-07T19:54:34.344Z,23.80
2022-08-07T19:58:01.618Z,23.70
2022-08-07T19:59:53.487Z,23.60
2022-08-07T20:02:31.397Z,23.60
2022-08-07T20:05:02.627Z,23.50
2022-08-07T20:07:46.096Z,23.30
2022-08-07T20:10:36.758Z,23.30
2022-08-07T20:13:23.456Z,23.20
2022-08-07T20:15:55.158Z,23.10
2022-08-07T20:18:32.752Z,23.10
2022-08-07T20:21:14.474Z,23.00
2022-08-07T20:24:00.933Z,23.00
2022-08-07T20:26:44.843Z,22.90
2022-08-07T20:29:46.691Z,22.80
2022-08-07T20:32:03.795Z,22.70
2022-08-07T20:34:49.196Z,22.70
2022-08-07T20:37:26.242Z,22.70
2022-08-07T20:40:02.339Z,22.60
2022-08-07T20:42:33.305Z,22.50
2022-08-07T20:45:01.299Z,22.50
2022-08-07T20:47:56.000Z,22.50
2022-08-07T20:50:20.886Z,22.50
2022-08-07T20:52:51.045Z,22.50
2022-08-07T20:55:23.866Z,22.30
2022-08-07T20:58:03.315Z,22.30
2022-08-07T21:00:44.002Z,22.30
2022-08-07T21:03:16.291Z,22.20
2022-08-07T21:05:55.898Z,22.20
2022-08-07T21:08:44.402Z,22.20
2022-08-07T21:11:17.166Z,22.00
2022-08-07T21:14:20.079Z,22.10
2022-08-07T21:16:56.916Z,22.10
2022-08-07T21:19:51.005Z,21.90
2022-08-07T21:22:29.819Z,21.80
2022-08-07T21:25:22.469Z,21.80
2022-08-07T21:28:16.725Z,21.90
2022-08-07T21:31:02.289Z,21.90
2022-08-07T21:33:41.535Z,21.70
2022-08-07T21:36:32.223Z,21.60
2022-08-07T21:39:45.974Z,21.40
2022-08-07T21:42:41.888Z,21.30
2022-08-07T21:46:05.315Z,21.40
2022-08-07T21:48:29.032Z,21.30
2022-08-07T21:51:19.946Z,21.20
2022-08-07T21:53:54.760Z,21.20
2022-08-07T21:56:49.340Z,21.10
2022-08-07T22:00:04.486Z,21.10
2022-08-07T22:02:41.146Z,21.00
2022-08-07T22:05:21.594Z,21.10
2022-08-07T22:07:58.341Z,21.10
2022-08-07T22:10:33.875Z,21.00
2022-08-07T22:13:09.235Z,21.00
2022-08-07T22:16:39.162Z,20.90
2022-08-07T22:18:44.346Z,20.80
2022-08-07T22:22:04.392Z,20.90
2022-08-07T22:24:57.015Z,20.90
2022-08-07T22:28:20.215Z,20.80
2022-08-07T22:30:56.868Z,20.70
2022-08-07T22:33:52.845Z,20.50
2022-08-07T22:36:31.716Z,20.50
2022-08-07T22:39:04.854Z,20.40
2022-08-07T22:42:03.598Z,20.20
2022-08-07T22:44:35.452Z,20.00
2022-08-07T22:47:39.256Z,20.00
2022-08-07T22:50:28.774Z,20.00
2022-08-07T22:54:05.592Z,20.00
2022-08-07T22:56:35.926Z,19.90
2022-08-07T22:59:52.399Z,19.90
2022-08-07T23:02:56.326Z,19.70
2022-08-07T23:06:09.778Z,19.70
2022-08-07T23:10:00.937Z,19.70
2022-08-07T23:12:20.952Z,19.60
2022-08-07T23:15:05.285Z,19.50
2022-08-07T23:17:48.627Z,19.50
2022-08-07T23:20:40.255Z,19.50
2022-08-07T23:24:06.991Z,19.50
2022-08-07T23:26:55.096Z,19.50
2022-08-07T23:30:37.063Z,19.40
2022-08-07T23:34:36.358Z,19.40
2022-08-07T23:36:17.422Z,19.40
2022-08-07T23:39:11.377Z,19.40
2022-08-07T23:42:04.462Z,19.40
2022-08-07T23:44:42.714Z,19.50
2022-08-07T23:47:42.268Z,19.40
2022-08-07T23:50:41.074Z,19.40
2022-08-07T23:53:51.286Z,19.40
2022-08-07T23:56:31.232Z,19.30
2022-08-07T23:59:10.504Z,19.30
